Time;durP1;ratioP1;P1;durP2;ratioP2;P2;SDS_P1;SDS_P2;PMS_P1;PMS_P2;Temp;Humidity;BMP_temperature;BMP_pressure;BME280_temperature;BME280_humidity;BME280_pressure;Samples;Min_cycle;Max_cycle;Signal;HPM_P1;HPM_P2
2022/07/16 00:03:39;;;;;;;2.55;1.50;;;13.50;90.00;;;;;;5012602;28;20134;-79
2022/07/16 00:06:05;;;;;;;3.70;1.00;;;13.50;89.60;;;;;;5011338;28;20478;-81
2022/07/16 00:08:31;;;;;;;7.18;1.30;;;13.50;89.40;;;;;;4993480;28;20042;-79
2022/07/16 00:10:57;;;;;;;2.63;0.95;;;13.20;90.10;;;;;;5012869;28;20026;-80
2022/07/16 00:13:23;;;;;;;2.30;0.95;;;13.00;90.50;;;;;;5012869;28;20044;-80
2022/07/16 00:15:50;;;;;;;2.17;1.00;;;12.90;90.80;;;;;;5011842;28;20495;-80
2022/07/16 00:21:00;;;;;;;3.00;0.90;;;12.70;91.40;;;;;;5012975;28;20033;-79
2022/07/16 00:23:27;;;;;;;3.20;1.08;;;12.60;91.50;;;;;;4984457;28;20034;-80
2022/07/16 00:25:53;;;;;;;3.15;1.33;;;12.50;92.00;;;;;;5004173;28;20038;-80
2022/07/16 00:28:19;;;;;;;2.88;1.00;;;12.40;92.30;;;;;;5012615;28;20034;-81
2022/07/16 00:30:46;;;;;;;4.35;1.00;;;12.40;92.50;;;;;;5011856;28;20042;-80
2022/07/16 00:33:12;;;;;;;3.40;1.08;;;12.40;92.60;;;;;;5012639;28;20041;-81
2022/07/16 00:35:38;;;;;;;2.35;0.77;;;12.50;93.20;;;;;;5010956;28;20030;-80
2022/07/16 00:38:07;;;;;;;3.85;1.27;;;12.80;92.60;;;;;;5011315;28;20037;-80
2022/07/16 00:40:33;;;;;;;2.35;1.00;;;12.90;92.00;;;;;;4994267;28;20045;-81
2022/07/16 00:43:01;;;;;;;1.80;1.10;;;13.00;91.90;;;;;;5006116;28;20049;-81
2022/07/16 00:45:27;;;;;;;4.15;1.10;;;12.90;91.80;;;;;;4993086;28;20372;-81
2022/07/16 00:47:54;;;;;;;4.07;1.38;;;12.80;92.10;;;;;;5006095;28;20030;-81
2022/07/16 00:50:21;;;;;;;3.22;1.52;;;12.70;92.90;;;;;;5012332;28;20378;-81
2022/07/16 00:52:47;;;;;;;2.17;1.15;;;12.80;92.60;;;;;;5012034;28;20053;-80
2022/07/16 00:55:13;;;;;;;2.97;1.35;;;12.70;93.00;;;;;;5010747;28;20037;-80
2022/07/16 00:57:39;;;;;;;1.73;1.02;;;12.40;93.50;;;;;;5011957;28;20501;-80
2022/07/16 01:00:06;;;;;;;2.53;0.85;;;12.30;93.90;;;;;;4994187;28;20049;-80
2022/07/16 01:02:33;;;;;;;3.35;1.02;;;12.10;94.30;;;;;;5010892;28;20054;-80
2022/07/16 01:05:01;;;;;;;2.92;1.00;;;12.30;94.50;;;;;;5011139;28;20026;-80
2022/07/16 01:07:27;;;;;;;3.13;1.55;;;12.40;94.20;;;;;;5011187;28;20045;-81
2022/07/16 01:09:54;;;;;;;6.57;2.17;;;12.20;94.40;;;;;;5011966;28;20438;-80
2022/07/16 01:12:20;;;;;;;4.82;1.75;;;12.00;94.90;;;;;;5011590;28;20041;-82
2022/07/16 01:14:47;;;;;;;3.67;1.25;;;11.90;95.50;;;;;;4977249;28;20033;-80
2022/07/16 01:17:14;;;;;;;3.60;1.88;;;11.90;96.00;;;;;;5012112;28;20038;-80
2022/07/16 01:19:40;;;;;;;4.95;1.88;;;11.90;96.00;;;;;;4994490;28;20291;-80
2022/07/16 01:22:06;;;;;;;6.85;1.60;;;12.00;96.10;;;;;;5011804;28;20046;-79
2022/07/16 01:24:32;;;;;;;3.70;1.50;;;11.90;96.20;;;;;;5010261;28;20049;-80
2022/07/16 01:26:59;;;;;;;3.35;1.70;;;12.00;96.40;;;;;;5011909;28;20026;-80
2022/07/16 01:29:25;;;;;;;2.92;1.33;;;11.80;96.50;;;;;;5014097;28;20424;-80
2022/07/16 01:31:51;;;;;;;4.95;3.13;;;11.70;97.20;;;;;;4997917;28;20475;-80
2022/07/16 01:34:26;;;;;;;5.05;1.90;;;11.50;97.70;;;;;;5015031;28;20049;-81
2022/07/16 01:37:01;;;;;;;2.33;1.38;;;11.50;98.00;;;;;;5016262;28;20037;-80
2022/07/16 01:39:29;;;;;;;3.75;2.08;;;11.50;98.30;;;;;;5015358;28;20026;-79
2022/07/16 01:41:58;;;;;;;3.10;1.90;;;11.60;98.00;;;;;;5015328;28;20042;-79
2022/07/16 01:44:26;;;;;;;4.10;1.70;;;11.60;98.10;;;;;;5013812;28;20042;-80
2022/07/16 01:46:53;;;;;;;3.00;1.95;;;11.60;98.20;;;;;;5017797;28;20041;-79
2022/07/16 01:49:23;;;;;;;4.07;2.53;;;11.50;98.30;;;;;;5016463;28;20132;-79
2022/07/16 01:51:49;;;;;;;5.82;2.45;;;11.30;99.10;;;;;;5015515;28;20030;-79
2022/07/16 01:54:16;;;;;;;5.60;2.15;;;11.10;99.90;;;;;;4997234;28;20045;-80
2022/07/16 01:56:42;;;;;;;4.68;2.42;;;11.00;99.90;;;;;;5018070;28;20030;-79
2022/07/16 01:59:08;;;;;;;4.90;2.13;;;10.90;99.90;;;;;;4993371;28;20049;-79
2022/07/16 02:01:35;;;;;;;3.90;2.15;;;10.80;99.90;;;;;;5015389;28;20030;-79
2022/07/16 02:04:01;;;;;;;3.08;2.20;;;10.80;99.90;;;;;;5015604;28;20060;-79
2022/07/16 02:06:27;;;;;;;5.25;2.20;;;10.70;99.90;;;;;;5013980;28;20030;-79
2022/07/16 02:08:54;;;;;;;4.55;2.45;;;10.70;99.90;;;;;;5015253;28;20034;-80
2022/07/16 02:11:21;;;;;;;6.18;3.08;;;10.60;99.90;;;;;;5009070;28;20033;-83
2022/07/16 02:13:47;;;;;;;8.07;2.30;;;10.60;99.90;;;;;;5008685;28;20033;-79
2022/07/16 02:16:13;;;;;;;4.00;2.88;;;10.60;99.90;;;;;;5013269;28;20084;-81
2022/07/16 02:18:39;;;;;;;10.70;2.50;;;10.60;99.90;;;;;;5014463;28;20038;-79
2022/07/16 02:21:06;;;;;;;5.20;2.28;;;10.60;99.90;;;;;;5015284;28;20119;-79
2022/07/16 02:23:32;;;;;;;5.82;2.78;;;10.70;99.90;;;;;;5014505;28;20042;-80
2022/07/16 02:25:58;;;;;;;6.13;3.00;;;10.70;99.90;;;;;;5013364;28;20034;-79
2022/07/16 02:28:24;;;;;;;3.75;2.58;;;10.60;99.90;;;;;;5013174;28;20037;-80
2022/07/16 02:30:51;;;;;;;2.67;2.00;;;10.60;99.90;;;;;;4999359;28;20045;-79
2022/07/16 02:33:19;;;;;;;3.00;2.28;;;10.60;99.90;;;;;;5014317;28;20033;-79
2022/07/16 02:35:45;;;;;;;7.03;2.70;;;10.70;99.90;;;;;;5013421;28;20399;-80
2022/07/16 02:38:13;;;;;;;4.28;2.95;;;10.70;99.90;;;;;;5015527;28;20037;-79
2022/07/16 02:40:40;;;;;;;5.15;3.00;;;10.60;99.90;;;;;;5013317;28;20038;-80
2022/07/16 02:43:08;;;;;;;4.32;2.95;;;10.60;99.90;;;;;;5014591;28;20041;-80
2022/07/16 02:45:36;;;;;;;3.35;2.72;;;10.60;99.90;;;;;;5013166;28;20061;-81
2022/07/16 02:48:03;;;;;;;5.47;2.25;;;10.60;99.90;;;;;;5014271;28;20113;-79
2022/07/16 02:50:30;;;;;;;7.82;3.83;;;10.50;99.90;;;;;;5013556;28;20030;-80
2022/07/16 02:52:57;;;;;;;5.50;2.67;;;10.50;99.90;;;;;;5013126;28;20041;-80
2022/07/16 02:55:23;;;;;;;9.27;2.83;;;10.50;99.90;;;;;;4995079;28;20030;-81
2022/07/16 02:57:50;;;;;;;4.75;2.83;;;10.60;99.90;;;;;;5014188;28;20030;-79
2022/07/16 03:00:17;;;;;;;6.07;2.72;;;10.30;99.90;;;;;;5014231;28;20038;-79
2022/07/16 03:02:43;;;;;;;6.60;3.85;;;10.20;99.90;;;;;;4999046;28;20061;-79
2022/07/16 03:05:10;;;;;;;3.80;2.83;;;10.10;99.90;;;;;;5014652;28;20056;-79
2022/07/16 03:07:37;;;;;;;4.43;2.78;;;10.00;99.90;;;;;;5015627;28;20049;-80
2022/07/16 03:10:06;;;;;;;5.05;2.83;;;9.90;99.90;;;;;;5035793;28;20026;-79
2022/07/16 03:12:32;;;;;;;4.60;3.08;;;9.90;99.90;;;;;;5035471;28;20018;-80
2022/07/16 03:14:59;;;;;;;5.20;2.67;;;9.90;99.90;;;;;;5038018;28;20026;-80
2022/07/16 03:17:25;;;;;;;4.90;2.78;;;9.90;99.90;;;;;;5025338;28;20041;-79
2022/07/16 03:19:51;;;;;;;3.58;2.65;;;10.00;99.90;;;;;;5028681;28;20034;-80
2022/07/16 03:22:18;;;;;;;4.05;2.70;;;9.90;99.90;;;;;;5022012;28;20045;-79
2022/07/16 03:24:44;;;;;;;4.25;2.88;;;9.80;99.90;;;;;;5014633;28;20467;-79
2022/07/16 03:27:11;;;;;;;7.28;3.13;;;9.80;99.90;;;;;;5015859;28;20037;-79
2022/07/16 03:29:37;;;;;;;5.00;3.05;;;9.80;99.90;;;;;;5014666;28;20053;-80
2022/07/16 03:32:04;;;;;;;3.33;2.35;;;9.80;99.90;;;;;;5017108;28;20033;-80
2022/07/16 03:34:31;;;;;;;4.47;2.58;;;9.80;99.90;;;;;;5007278;28;20041;-79
2022/07/16 03:36:57;;;;;;;5.82;2.95;;;9.80;99.90;;;;;;5012707;28;20041;-79
2022/07/16 03:39:23;;;;;;;3.05;2.28;;;10.00;99.90;;;;;;5013864;28;20482;-80
2022/07/16 03:41:49;;;;;;;8.50;3.25;;;10.00;99.90;;;;;;5013988;28;20034;-80
2022/07/16 03:44:16;;;;;;;5.20;2.65;;;10.10;99.90;;;;;;5013495;28;20034;-80
2022/07/16 03:46:43;;;;;;;11.27;3.47;;;10.10;99.90;;;;;;5013922;28;20268;-80
2022/07/16 03:49:09;;;;;;;5.72;3.13;;;10.00;99.90;;;;;;5013027;28;20082;-81
2022/07/16 03:51:36;;;;;;;5.82;3.03;;;10.10;99.90;;;;;;5015062;28;20038;-80
2022/07/16 03:54:04;;;;;;;6.13;3.85;;;10.00;99.90;;;;;;5013355;28;20040;-82
2022/07/16 03:56:31;;;;;;;7.30;3.60;;;10.00;99.90;;;;;;5013942;28;20030;-80
2022/07/16 03:58:57;;;;;;;6.22;3.50;;;9.70;99.90;;;;;;5013499;28;20493;-79
2022/07/16 04:01:24;;;;;;;4.55;3.30;;;9.60;99.90;;;;;;5013292;28;20033;-81
2022/07/16 04:03:50;;;;;;;8.00;3.03;;;9.60;99.90;;;;;;5011728;28;20410;-80
2022/07/16 04:06:17;;;;;;;5.50;3.63;;;9.60;99.90;;;;;;5012535;28;20034;-80
2022/07/16 04:08:43;;;;;;;6.68;3.75;;;9.60;99.90;;;;;;5012761;28;20033;-80
2022/07/16 04:11:09;;;;;;;9.55;3.47;;;9.60;99.90;;;;;;5012181;28;20490;-80
2022/07/16 04:13:39;;;;;;;4.22;3.10;;;9.70;99.90;;;;;;4994320;28;20045;-80
2022/07/16 04:16:06;;;;;;;6.15;3.58;;;9.80;99.90;;;;;;5012714;28;20037;-81
2022/07/16 04:18:33;;;;;;;7.00;3.60;;;9.90;99.90;;;;;;5012251;28;20036;-80
2022/07/16 04:21:00;;;;;;;4.38;3.60;;;10.00;99.90;;;;;;5012923;28;20029;-81
2022/07/16 04:23:26;;;;;;;4.70;2.78;;;10.10;99.90;;;;;;5012612;28;20052;-81
2022/07/16 04:25:52;;;;;;;5.18;2.97;;;10.20;99.90;;;;;;5012426;28;20033;-80
2022/07/16 04:28:18;;;;;;;6.88;3.42;;;10.40;99.90;;;;;;5013374;28;20387;-80
2022/07/16 04:30:45;;;;;;;4.28;2.88;;;10.50;99.90;;;;;;5013220;28;20030;-80
2022/07/16 04:33:11;;;;;;;4.97;2.20;;;10.90;99.90;;;;;;5012537;28;20040;-80
2022/07/16 04:35:37;;;;;;;5.22;2.90;;;11.50;99.90;;;;;;5011619;28;20056;-80
2022/07/16 04:38:03;;;;;;;4.60;2.42;;;12.40;99.90;;;;;;5012755;28;20450;-81
2022/07/16 04:40:30;;;;;;;3.83;2.20;;;13.80;98.90;;;;;;5012367;28;20036;-80
2022/07/16 04:42:56;;;;;;;6.57;1.92;;;14.80;95.40;;;;;;5012331;28;20042;-80
2022/07/16 04:45:22;;;;;;;6.85;1.95;;;15.70;92.60;;;;;;5010253;28;20037;-81
2022/07/16 04:47:48;;;;;;;3.22;1.60;;;16.60;87.90;;;;;;5004881;28;20034;-81
2022/07/16 04:50:15;;;;;;;4.55;1.88;;;17.20;82.60;;;;;;5012206;28;20029;-82
2022/07/16 04:52:41;;;;;;;8.18;3.05;;;17.20;80.80;;;;;;5006577;28;20037;-82
2022/07/16 04:55:08;;;;;;;5.45;2.95;;;17.30;79.70;;;;;;5011316;28;20089;-81
2022/07/16 04:57:34;;;;;;;7.47;2.92;;;17.20;79.10;;;;;;5011705;28;20033;-81
2022/07/16 05:00:00;;;;;;;5.35;2.03;;;17.10;79.60;;;;;;5013281;28;20390;-81
2022/07/16 05:05:11;;;;;;;15.23;3.67;;;18.20;79.40;;;;;;5021657;28;20053;-80
2022/07/16 05:07:37;;;;;;;3.13;1.55;;;19.60;72.90;;;;;;5012727;28;20030;-82
2022/07/16 05:10:04;;;;;;;5.03;1.67;;;20.40;66.00;;;;;;5012386;28;20042;-81
2022/07/16 05:12:30;;;;;;;6.65;1.80;;;20.70;64.00;;;;;;5010100;28;20383;-79
2022/07/16 05:14:57;;;;;;;4.65;2.33;;;20.90;62.10;;;;;;5011621;28;20045;-81
2022/07/16 05:17:23;;;;;;;4.00;2.08;;;21.30;62.70;;;;;;5021369;28;20493;-80
2022/07/16 05:19:49;;;;;;;2.78;1.40;;;21.80;59.90;;;;;;5011345;28;20030;-81
2022/07/16 05:22:15;;;;;;;3.60;1.80;;;21.50;59.40;;;;;;5011363;28;20030;-81
2022/07/16 05:24:41;;;;;;;5.68;1.88;;;21.10;60.70;;;;;;5010983;28;20049;-79
2022/07/16 05:27:07;;;;;;;2.53;1.40;;;21.30;60.40;;;;;;5015391;28;20045;-78
2022/07/16 05:29:34;;;;;;;2.55;1.67;;;21.50;59.40;;;;;;5011674;28;20029;-79
2022/07/16 05:32:00;;;;;;;3.28;1.13;;;21.70;58.70;;;;;;5012454;28;20037;-78
2022/07/16 05:34:26;;;;;;;4.10;1.60;;;22.60;57.60;;;;;;5009655;28;20479;-79
2022/07/16 05:36:52;;;;;;;2.90;1.35;;;23.30;55.50;;;;;;5012445;28;20034;-78
2022/07/16 05:39:18;;;;;;;2.65;1.27;;;23.40;54.10;;;;;;5011844;28;20033;-78
2022/07/16 05:41:44;;;;;;;2.35;1.25;;;22.70;54.20;;;;;;5012178;28;20378;-79
2022/07/16 05:44:11;;;;;;;7.70;1.55;;;22.30;54.80;;;;;;5010078;28;20038;-78
2022/07/16 05:46:37;;;;;;;4.05;1.63;;;22.10;55.20;;;;;;5011778;28;20423;-79
2022/07/16 05:49:03;;;;;;;2.53;1.35;;;22.20;55.10;;;;;;5012231;28;20041;-78
2022/07/16 05:51:29;;;;;;;5.13;1.45;;;22.70;54.90;;;;;;5005478;28;20026;-81
2022/07/16 05:53:56;;;;;;;3.00;1.10;;;23.90;52.20;;;;;;5010285;28;20030;-80
2022/07/16 05:56:22;;;;;;;3.33;1.83;;;24.30;51.70;;;;;;5011754;28;20060;-83
2022/07/16 05:58:48;;;;;;;5.40;1.58;;;23.10;52.60;;;;;;5011099;28;20022;-80
2022/07/16 06:01:15;;;;;;;2.55;1.40;;;22.00;54.50;;;;;;5011631;28;20049;-79
2022/07/16 06:03:41;;;;;;;2.30;0.90;;;22.20;54.40;;;;;;5010894;28;20499;-79
2022/07/16 06:06:07;;;;;;;3.28;1.38;;;23.10;52.70;;;;;;5010363;28;20073;-80
2022/07/16 06:08:33;;;;;;;6.78;1.45;;;23.10;52.40;;;;;;5011484;28;20356;-80
2022/07/16 06:11:00;;;;;;;3.47;1.13;;;22.90;53.20;;;;;;5010882;28;20030;-79
2022/07/16 06:13:29;;;;;;;3.13;0.95;;;23.00;52.50;;;;;;5016235;28;20038;-81
2022/07/16 06:15:55;;;;;;;3.33;1.27;;;23.80;52.30;;;;;;5014544;28;20026;-81
2022/07/16 06:18:21;;;;;;;3.10;1.10;;;23.90;51.40;;;;;;5015168;28;20025;-79
2022/07/16 06:20:48;;;;;;;2.42;1.02;;;22.90;52.40;;;;;;5021972;28;20045;-80
2022/07/16 06:23:14;;;;;;;3.58;1.10;;;22.70;52.50;;;;;;5017844;28;20053;-80
2022/07/16 06:25:41;;;;;;;2.92;1.17;;;22.60;53.00;;;;;;5004559;28;20050;-79
2022/07/16 06:28:07;;;;;;;3.55;1.17;;;22.40;52.80;;;;;;5022713;28;20037;-81
2022/07/16 06:30:33;;;;;;;2.40;1.10;;;22.80;53.90;;;;;;5017491;28;20034;-80
2022/07/16 06:32:59;;;;;;;2.17;0.70;;;24.20;51.10;;;;;;5019136;28;20037;-80
2022/07/16 06:35:26;;;;;;;4.63;1.85;;;25.50;49.90;;;;;;5021112;28;20030;-80
2022/07/16 06:37:52;;;;;;;3.25;1.02;;;24.90;49.90;;;;;;5017553;28;20048;-81
2022/07/16 06:40:18;;;;;;;2.15;0.70;;;23.70;51.20;;;;;;5014967;28;20038;-81
2022/07/16 06:42:44;;;;;;;1.98;0.73;;;23.30;51.50;;;;;;5006996;28;20029;-82
2022/07/16 06:45:11;;;;;;;2.72;0.90;;;22.50;52.10;;;;;;5012831;28;20054;-80
2022/07/16 06:47:37;;;;;;;3.15;0.80;;;22.60;52.30;;;;;;5014215;28;20037;-81
2022/07/16 06:50:04;;;;;;;2.05;1.02;;;23.70;51.30;;;;;;5014177;28;20033;-82
2022/07/16 06:52:30;;;;;;;1.48;0.82;;;24.20;50.80;;;;;;5013704;28;20036;-80
2022/07/16 06:54:56;;;;;;;3.28;1.10;;;24.60;51.10;;;;;;5012949;28;20057;-81
2022/07/16 06:57:22;;;;;;;1.63;0.82;;;24.80;49.60;;;;;;5014741;28;20040;-80
2022/07/16 06:59:48;;;;;;;17.80;2.05;;;24.70;49.00;;;;;;5020790;28;20037;-81
2022/07/16 07:02:15;;;;;;;6.47;1.15;;;23.70;50.70;;;;;;5017307;28;20407;-81
2022/07/16 07:04:41;;;;;;;2.92;0.88;;;23.10;51.70;;;;;;5012547;28;20038;-80
2022/07/16 07:07:07;;;;;;;3.13;0.85;;;23.70;51.20;;;;;;5013849;28;20025;-79
2022/07/16 07:09:33;;;;;;;2.90;0.95;;;24.70;48.90;;;;;;5012464;28;20456;-81
2022/07/16 07:11:59;;;;;;;4.60;1.33;;;25.40;48.30;;;;;;5017333;28;20034;-84
2022/07/16 07:14:26;;;;;;;3.58;0.90;;;26.10;47.40;;;;;;5015289;28;20463;-84
2022/07/16 07:16:52;;;;;;;2.70;1.15;;;25.00;48.50;;;;;;5001780;28;20033;-82
2022/07/16 07:19:18;;;;;;;1.67;0.80;;;24.30;50.00;;;;;;5019956;28;20040;-81
2022/07/16 07:21:44;;;;;;;2.22;1.00;;;26.30;47.90;;;;;;4995754;28;20061;-80
2022/07/16 07:24:10;;;;;;;3.85;0.85;;;27.40;45.30;;;;;;5012314;28;20034;-81
2022/07/16 07:26:37;;;;;;;1.98;1.10;;;28.30;45.10;;;;;;5014067;28;20033;-85
2022/07/16 07:29:03;;;;;;;8.18;0.90;;;27.10;45.10;;;;;;5007376;28;20040;-83
2022/07/16 07:31:29;;;;;;;4.32;1.10;;;24.90;47.90;;;;;;5013913;28;20149;-83
2022/07/16 07:33:55;;;;;;;4.15;1.10;;;24.70;47.60;;;;;;5013555;28;20113;-82
2022/07/16 07:36:22;;;;;;;1.13;0.50;;;24.90;48.40;;;;;;5024453;28;20033;-83
2022/07/16 07:38:48;;;;;;;4.43;1.20;;;25.20;48.20;;;;;;5024265;28;20471;-82
2022/07/16 07:41:15;;;;;;;3.53;0.98;;;25.30;47.60;;;;;;5026705;28;20030;-83
2022/07/16 07:43:41;;;;;;;5.40;0.93;;;25.10;48.00;;;;;;5035685;28;20036;-85
2022/07/16 07:46:07;;;;;;;2.50;0.95;;;26.00;47.20;;;;;;5036781;28;20426;-82
2022/07/16 07:48:33;;;;;;;3.92;0.85;;;26.00;46.10;;;;;;5014584;28;20379;-82
2022/07/16 07:51:00;;;;;;;2.55;0.93;;;24.90;46.30;;;;;;5013596;28;20463;-80
2022/07/16 07:53:26;;;;;;;4.30;0.60;;;25.10;47.70;;;;;;5012802;28;20030;-81
2022/07/16 07:55:52;;;;;;;4.43;0.80;;;26.10;46.40;;;;;;5018958;28;20379;-81
2022/07/16 07:58:19;;;;;;;2.00;0.90;;;27.10;45.80;;;;;;4982303;28;20038;-81
2022/07/16 08:00:45;;;;;;;3.72;0.82;;;27.00;46.40;;;;;;5013442;28;20038;-81
2022/07/16 08:03:11;;;;;;;2.75;0.85;;;27.40;45.20;;;;;;5001878;28;20498;-80
2022/07/16 08:05:37;;;;;;;5.65;0.82;;;26.30;45.80;;;;;;5011683;28;20053;-80
2022/07/16 08:08:04;;;;;;;2.45;0.70;;;26.90;45.00;;;;;;5011676;28;20033;-82
2022/07/16 08:10:30;;;;;;;4.95;1.00;;;26.60;45.20;;;;;;5012829;28;20037;-85
2022/07/16 08:12:56;;;;;;;3.42;0.80;;;25.90;45.60;;;;;;5012354;28;20382;-79
2022/07/16 08:15:23;;;;;;;2.00;0.57;;;25.40;46.00;;;;;;5012120;28;20033;-80
2022/07/16 08:17:49;;;;;;;4.07;0.75;;;25.50;46.00;;;;;;5012512;28;20038;-83
2022/07/16 08:20:16;;;;;;;1.30;0.40;;;25.30;46.60;;;;;;5012349;28;20030;-80
2022/07/16 08:22:42;;;;;;;2.35;0.52;;;24.90;47.40;;;;;;5012332;28;20459;-80
2022/07/16 08:27:54;;;;;;;6.00;1.88;;;25.40;46.90;;;;;;5004870;28;20046;-81
2022/07/16 08:30:20;;;;;;;5.28;0.85;;;25.20;47.30;;;;;;5012412;28;20459;-81
2022/07/16 08:32:47;;;;;;;1.88;0.88;;;24.70;47.60;;;;;;5012205;28;20056;-80
2022/07/16 08:35:13;;;;;;;2.67;0.88;;;25.10;47.30;;;;;;5011870;28;20042;-85
2022/07/16 08:37:44;;;;;;;4.88;1.33;;;25.50;46.70;;;;;;5011929;28;20037;-80
2022/07/16 08:40:16;;;;;;;4.25;1.02;;;24.40;48.00;;;;;;5020846;28;20045;-81
2022/07/16 08:42:42;;;;;;;2.85;1.02;;;24.10;48.90;;;;;;5006070;28;20030;-82
2022/07/16 08:45:10;;;;;;;3.38;0.98;;;24.20;48.90;;;;;;5010920;28;20037;-79
2022/07/16 08:47:37;;;;;;;3.38;0.80;;;24.70;47.80;;;;;;5005970;28;20367;-82
2022/07/16 08:50:08;;;;;;;6.80;1.10;;;24.70;48.60;;;;;;5012373;28;20546;-82
2022/07/16 08:52:38;;;;;;;4.03;1.05;;;24.20;47.90;;;;;;5002845;28;20034;-87
2022/07/16 08:55:05;;;;;;;2.22;1.38;;;23.20;47.90;;;;;;5010127;28;20030;-84
2022/07/16 08:57:33;;;;;;;2.47;0.85;;;23.60;45.90;;;;;;5009441;28;20038;-84
2022/07/16 08:59:59;;;;;;;2.63;1.05;;;24.30;48.00;;;;;;5010837;28;20049;-82
2022/07/16 09:02:26;;;;;;;3.95;0.95;;;24.20;47.80;;;;;;5011993;28;20042;-83
2022/07/16 09:04:52;;;;;;;3.35;0.63;;;24.10;48.30;;;;;;5010346;28;20061;-81
2022/07/16 09:07:18;;;;;;;5.47;0.88;;;24.40;49.50;;;;;;5014598;28;20049;-80
2022/07/16 09:09:45;;;;;;;4.60;0.80;;;25.00;48.20;;;;;;5011674;28;20029;-81
2022/07/16 09:12:30;;;;;;;3.25;1.23;;;25.00;47.90;;;;;;5012137;28;20038;-80
2022/07/16 09:14:57;;;;;;;3.13;1.10;;;24.90;48.40;;;;;;4996148;28;20046;-86
2022/07/16 09:17:23;;;;;;;3.80;0.82;;;24.20;48.80;;;;;;4990097;28;20049;-79
2022/07/16 09:19:49;;;;;;;3.60;0.80;;;24.50;49.10;;;;;;5011670;28;20045;-80
2022/07/16 09:22:16;;;;;;;1.80;0.70;;;25.50;48.50;;;;;;5011061;28;20049;-82
2022/07/16 09:24:43;;;;;;;1.67;0.85;;;25.40;47.50;;;;;;5009851;28;20495;-78
2022/07/16 09:27:18;;;;;;;7.25;1.17;;;24.70;48.00;;;;;;5012181;28;20038;-85
2022/07/16 09:30:03;;;;;;;4.20;0.80;;;24.50;48.10;;;;;;5012087;28;20471;-78
2022/07/16 09:32:36;;;;;;;3.75;1.00;;;24.30;49.60;;;;;;5011947;28;20057;-84
2022/07/16 09:35:06;;;;;;;4.35;0.90;;;24.60;49.00;;;;;;5010509;28;20038;-79
2022/07/16 09:37:55;;;;;;;3.55;0.95;;;24.90;49.60;;;;;;5009494;28;20034;-80
2022/07/16 09:40:40;;;;;;;;;;;26.00;48.90;;;;;;5010618;28;20038;-78
2022/07/16 09:43:15;;;;;;;2.92;0.70;;;26.90;46.60;;;;;;4989959;28;20339;-78
2022/07/16 09:45:50;;;;;;;2.47;1.02;;;25.90;47.40;;;;;;5010632;28;20033;-83
2022/07/16 09:48:26;;;;;;;2.08;0.70;;;26.20;47.40;;;;;;5013348;28;20045;-79
2022/07/16 09:50:54;;;;;;;2.65;0.70;;;26.10;47.10;;;;;;5013949;28;20034;-81
2022/07/16 09:53:23;;;;;;;4.15;0.63;;;26.00;46.50;;;;;;5015697;28;20041;-80
2022/07/16 09:56:04;;;;;;;2.40;0.60;;;25.70;46.90;;;;;;5015089;28;20049;-88
2022/07/16 09:58:31;;;;;;;1.73;0.77;;;25.70;47.40;;;;;;5019060;28;21527;-88
2022/07/16 10:00:58;;;;;;;5.47;0.93;;;26.30;46.60;;;;;;5007360;28;20049;-84
2022/07/16 10:03:25;;;;;;;1.88;0.60;;;26.80;46.20;;;;;;5004943;28;20050;-84
2022/07/16 10:05:52;;;;;;;1.73;0.60;;;27.00;45.20;;;;;;5014964;28;20034;-87
2022/07/16 10:08:18;;;;;;;4.28;1.00;;;27.20;45.00;;;;;;5016872;28;20045;-90
2022/07/16 10:10:45;;;;;;;2.78;0.88;;;26.50;45.00;;;;;;5014891;28;20034;-88
2022/07/16 10:13:13;;;;;;;4.80;0.90;;;26.10;45.40;;;;;;5031899;28;20057;-89
2022/07/16 10:15:40;;;;;;;2.60;0.90;;;25.70;45.80;;;;;;5018866;28;20402;-89
2022/07/16 10:18:33;;;;;;;10.48;1.60;;;25.60;47.80;;;;;;5022867;28;20030;-88
2022/07/16 10:21:17;;;;;;;2.35;0.90;;;25.50;46.60;;;;;;5021327;28;20054;-87
2022/07/16 10:24:05;;;;;;;3.30;0.93;;;26.00;49.20;;;;;;5014648;28;20041;-95
2022/07/16 10:26:32;;;;;;;5.38;1.45;;;27.20;45.10;;;;;;5017528;28;20038;-89
2022/07/16 10:28:59;;;;;;;2.22;0.90;;;25.80;45.00;;;;;;5021265;28;20041;-88
2022/07/16 10:32:26;;;;;;;3.45;0.95;;;25.00;46.10;;;;;;5022757;28;20052;-91
2022/07/16 10:34:41;;;;;;;3.15;1.17;;;25.00;46.40;;;;;;5012880;28;20045;-90
2022/07/16 10:37:10;;;;;;;2.85;1.20;;;24.40;47.90;;;;;;5017211;28;20030;-84
2022/07/16 10:40:01;;;;;;;2.35;0.88;;;24.60;47.40;;;;;;5018939;28;20041;-88
2022/07/16 10:42:28;;;;;;;4.68;0.98;;;25.00;47.10;;;;;;5016431;28;20463;-87
2022/07/16 10:44:55;;;;;;;4.10;2.05;;;25.20;46.10;;;;;;4996297;28;20053;-83
2022/07/16 10:47:42;;;;;;;1.20;0.80;;;25.00;46.50;;;;;;5015185;28;20034;-90
2022/07/16 10:50:19;;;;;;;2.95;1.60;;;25.20;47.10;;;;;;5015211;28;20030;-91
2022/07/16 10:52:48;;;;;;;3.92;1.05;;;25.30;46.30;;;;;;5014368;28;20037;-89
2022/07/16 10:55:38;;;;;;;3.35;0.80;;;25.00;46.60;;;;;;5012263;28;20041;-92
2022/07/16 10:58:05;;;;;;;2.55;1.00;;;25.40;46.30;;;;;;4997767;28;20416;-90
2022/07/16 11:00:31;;;;;;;1.65;0.70;;;25.60;45.90;;;;;;5013865;28;20038;-91
2022/07/16 11:02:59;;;;;;;2.10;1.20;;;25.90;46.50;;;;;;5017760;28;20439;-90
2022/07/16 11:05:31;;;;;;;5.55;0.82;;;25.70;46.60;;;;;;4998845;28;20050;-90
2022/07/16 11:08:11;;;;;;;6.70;1.17;;;25.90;46.00;;;;;;5014345;28;20034;-87
2022/07/16 11:10:40;;;;;;;4.38;0.85;;;25.80;45.90;;;;;;5015069;28;20026;-89
2022/07/16 11:13:17;;;;;;;2.95;1.17;;;25.50;46.00;;;;;;5007676;28;20036;-84
2022/07/16 11:15:44;;;;;;;2.83;0.88;;;25.40;46.10;;;;;;5013753;28;20057;-83
2022/07/16 11:18:15;;;;;;;1.73;0.90;;;25.20;45.90;;;;;;5014542;28;20030;-87
2022/07/16 11:20:43;;;;;;;1.42;0.95;;;25.40;46.00;;;;;;5013702;28;20037;-84
2022/07/16 11:23:10;;;;;;;3.20;1.15;;;25.30;45.70;;;;;;4997317;28;20460;-89
2022/07/16 11:25:53;;;;;;;3.53;1.02;;;25.40;46.30;;;;;;4994259;28;20065;-89
2022/07/16 11:28:19;;;;;;;3.58;1.10;;;25.20;46.60;;;;;;5001732;28;20035;-92
2022/07/16 11:31:03;;;;;;;2.40;1.20;;;25.00;46.10;;;;;;5020664;28;20045;-92
2022/07/16 11:33:35;;;;;;;3.53;1.00;;;25.10;46.20;;;;;;4998771;28;20038;-92
2022/07/16 11:36:06;;;;;;;3.13;0.90;;;25.20;46.30;;;;;;5013539;28;20463;-91
2022/07/16 11:38:32;;;;;;;3.85;1.10;;;25.70;46.00;;;;;;5014038;28;20052;-89
2022/07/16 11:40:58;;;;;;;3.58;0.90;;;26.10;45.20;;;;;;5014824;28;20030;-88
2022/07/16 11:43:29;;;;;;;5.22;1.05;;;25.90;46.20;;;;;;4995690;28;20034;-89
2022/07/16 11:45:55;;;;;;;3.85;1.33;;;26.20;45.70;;;;;;5018333;28;20486;-91
2022/07/16 11:48:21;;;;;;;4.47;1.23;;;26.30;45.10;;;;;;4999248;28;20395;-86
2022/07/16 11:50:48;;;;;;;2.03;0.90;;;26.00;45.60;;;;;;5013114;28;20357;-89
2022/07/16 11:53:26;;;;;;;2.92;1.15;;;26.30;45.60;;;;;;5012504;28;20029;-87
2022/07/16 11:55:52;;;;;;;1.67;1.15;;;26.70;45.90;;;;;;5013086;28;20395;-90
2022/07/16 11:58:20;;;;;;;5.32;1.17;;;26.70;44.00;;;;;;5015955;28;20034;-90
2022/07/16 12:00:48;;;;;;;2.90;0.90;;;26.60;43.90;;;;;;5021295;28;20363;-86
2022/07/16 12:03:15;;;;;;;2.03;0.88;;;26.60;44.70;;;;;;5000266;28;20061;-87
2022/07/16 12:05:41;;;;;;;4.60;1.08;;;26.60;44.60;;;;;;5018437;28;20034;-87
2022/07/16 12:08:09;;;;;;;1.77;1.10;;;26.70;45.60;;;;;;5033866;28;20018;-88
2022/07/16 12:10:35;;;;;;;4.00;1.25;;;26.80;43.90;;;;;;5035072;28;20044;-86
2022/07/16 12:13:03;;;;;;;2.80;0.70;;;26.80;43.20;;;;;;5033823;28;20018;-89
2022/07/16 12:15:30;;;;;;;2.10;1.10;;;26.40;43.70;;;;;;5036414;28;20014;-88
2022/07/16 12:18:11;;;;;;;2.60;0.93;;;26.20;44.10;;;;;;5027151;28;20073;-89
2022/07/16 12:20:37;;;;;;;3.58;1.13;;;26.10;44.40;;;;;;5015354;28;20057;-88
2022/07/16 12:23:14;;;;;;;5.93;0.77;;;25.90;44.10;;;;;;5017655;28;20037;-86
2022/07/16 12:25:45;;;;;;;2.70;1.13;;;26.40;43.80;;;;;;5013323;28;20045;-91
2022/07/16 12:28:14;;;;;;;7.47;1.30;;;26.60;43.50;;;;;;5017871;28;20033;-91
2022/07/16 12:31:03;;;;;;;2.45;0.73;;;26.50;43.50;;;;;;4997898;28;20050;-90
2022/07/16 12:33:30;;;;;;;2.08;0.90;;;26.40;44.00;;;;;;5003176;28;20108;-89
2022/07/16 12:35:59;;;;;;;3.28;1.15;;;26.50;43.90;;;;;;5013809;28;20050;-87
2022/07/16 12:38:39;;;;;;;3.27;0.87;;;26.00;44.10;;;;;;5013234;28;20398;-91
2022/07/16 12:41:08;;;;;;;2.70;1.13;;;25.70;44.20;;;;;;5013574;28;20770;-87
2022/07/16 12:43:34;;;;;;;2.97;1.25;;;25.20;44.90;;;;;;5009136;28;20295;-86
2022/07/16 12:46:01;;;;;;;2.28;0.82;;;25.20;44.70;;;;;;5011822;28;20045;-82
2022/07/16 12:48:39;;;;;;;2.33;0.95;;;25.30;44.80;;;;;;5011549;28;20049;-85
2022/07/16 12:51:05;;;;;;;2.17;0.95;;;25.90;44.80;;;;;;5004356;28;20033;-91
2022/07/16 12:53:31;;;;;;;1.83;0.88;;;26.30;43.90;;;;;;5009431;28;20041;-86
2022/07/16 12:58:49;;;;;;;2.97;1.20;;;26.30;44.40;;;;;;5010328;28;20033;-85
2022/07/16 13:01:17;;;;;;;4.13;1.02;;;26.00;44.00;;;;;;5011362;28;20057;-89
2022/07/16 13:03:44;;;;;;;3.50;1.08;;;26.00;44.00;;;;;;5007943;28;20069;-89
2022/07/16 13:06:12;;;;;;;3.65;1.42;;;26.40;44.20;;;;;;4999691;28;20137;-87